sensor_id;sensor_type;location;lat;lon;timestamp;pressure;altitude;pressure_sealevel;temperature;humidity
20368;BME280;10343;52.402;9.796;2023-06-04T00:02:24;101559.84;;;22.16;26.20
20368;BME280;10343;52.402;9.796;2023-06-04T00:04:53;101554.19;;;22.37;25.84
20368;BME280;10343;52.402;9.796;2023-06-04T00:07:22;101555.66;;;22.27;26.11
20368;BME280;10343;52.402;9.796;2023-06-04T00:09:52;101551.88;;;22.45;25.95
20368;BME280;10343;52.402;9.796;2023-06-04T00:12:20;101552.03;;;22.58;26.02
20368;BME280;10343;52.402;9.796;2023-06-04T00:14:48;101550.97;;;22.61;25.82
20368;BME280;10343;52.402;9.796;2023-06-04T00:17:16;101552.47;;;23.10;25.37
20368;BME280;10343;52.402;9.796;2023-06-04T00:19:44;101550.66;;;23.10;25.10
20368;BME280;10343;52.402;9.796;2023-06-04T00:22:16;101557.19;;;22.77;25.58
20368;BME280;10343;52.402;9.796;2023-06-04T00:24:46;101548.94;;;22.64;25.92
20368;BME280;10343;52.402;9.796;2023-06-04T00:27:14;101555.44;;;22.76;25.81
20368;BME280;10343;52.402;9.796;2023-06-04T00:29:42;101550.69;;;23.24;25.38
20368;BME280;10343;52.402;9.796;2023-06-04T00:32:10;101552.13;;;22.71;25.95
20368;BME280;10343;52.402;9.796;2023-06-04T00:34:39;101553.06;;;22.55;26.02
20368;BME280;10343;52.402;9.796;2023-06-04T00:37:07;101549.25;;;22.74;25.98
20368;BME280;10343;52.402;9.796;2023-06-04T00:39:35;101547.53;;;22.87;25.96
20368;BME280;10343;52.402;9.796;2023-06-04T00:42:05;101551.03;;;23.04;25.77
20368;BME280;10343;52.402;9.796;2023-06-04T00:44:33;101548.72;;;22.98;25.97
20368;BME280;10343;52.402;9.796;2023-06-04T00:47:03;101550.06;;;23.05;25.86
20368;BME280;10343;52.402;9.796;2023-06-04T00:49:31;101545.00;;;22.70;26.16
20368;BME280;10343;52.402;9.796;2023-06-04T00:51:59;101549.91;;;22.63;26.34
20368;BME280;10343;52.402;9.796;2023-06-04T00:54:27;101540.72;;;22.96;25.90
20368;BME280;10343;52.402;9.796;2023-06-04T00:56:56;101552.47;;;23.10;25.96
20368;BME280;10343;52.402;9.796;2023-06-04T00:59:25;101553.56;;;22.62;26.19
20368;BME280;10343;52.402;9.796;2023-06-04T01:01:57;101553.91;;;22.26;26.74
20368;BME280;10343;52.402;9.796;2023-06-04T01:04:30;101554.81;;;22.56;26.45
20368;BME280;10343;52.402;9.796;2023-06-04T01:07:02;101549.97;;;22.92;26.06
20368;BME280;10343;52.402;9.796;2023-06-04T01:09:31;101550.03;;;22.90;26.01
20368;BME280;10343;52.402;9.796;2023-06-04T01:12:03;101545.69;;;22.73;26.45
20368;BME280;10343;52.402;9.796;2023-06-04T01:14:33;101543.44;;;22.66;26.28
20368;BME280;10343;52.402;9.796;2023-06-04T01:17:02;101543.84;;;22.74;26.48
20368;BME280;10343;52.402;9.796;2023-06-04T01:20:02;101536.72;;;22.87;26.20
20368;BME280;10343;52.402;9.796;2023-06-04T01:22:37;101540.94;;;22.63;26.68
20368;BME280;10343;52.402;9.796;2023-06-04T01:25:15;101540.50;;;22.99;26.02
20368;BME280;10343;52.402;9.796;2023-06-04T01:27:48;101542.44;;;22.97;25.94
20368;BME280;10343;52.402;9.796;2023-06-04T01:30:23;101534.88;;;22.73;26.37
20368;BME280;10343;52.402;9.796;2023-06-04T01:32:52;101528.09;;;22.66;26.60
20368;BME280;10343;52.402;9.796;2023-06-04T01:35:21;101529.63;;;22.56;26.75
20368;BME280;10343;52.402;9.796;2023-06-04T01:37:55;101534.91;;;22.58;26.78
20368;BME280;10343;52.402;9.796;2023-06-04T01:40:23;101539.53;;;22.41;27.24
20368;BME280;10343;52.402;9.796;2023-06-04T01:42:52;101538.69;;;21.93;27.83
20368;BME280;10343;52.402;9.796;2023-06-04T01:45:22;101533.84;;;21.83;28.31
20368;BME280;10343;52.402;9.796;2023-06-04T01:47:50;101536.81;;;21.63;28.52
20368;BME280;10343;52.402;9.796;2023-06-04T01:50:19;101533.47;;;21.89;28.30
20368;BME280;10343;52.402;9.796;2023-06-04T01:52:47;101537.56;;;21.65;28.38
20368;BME280;10343;52.402;9.796;2023-06-04T01:55:16;101541.06;;;21.83;28.40
20368;BME280;10343;52.402;9.796;2023-06-04T01:57:46;101535.56;;;21.84;28.27
20368;BME280;10343;52.402;9.796;2023-06-04T02:00:15;101534.72;;;22.00;28.10
20368;BME280;10343;52.402;9.796;2023-06-04T02:02:45;101534.25;;;22.08;27.93
20368;BME280;10343;52.402;9.796;2023-06-04T02:05:15;101538.69;;;21.93;28.21
20368;BME280;10343;52.402;9.796;2023-06-04T02:07:45;101537.84;;;22.08;28.03
20368;BME280;10343;52.402;9.796;2023-06-04T02:10:19;101541.50;;;21.75;28.50
20368;BME280;10343;52.402;9.796;2023-06-04T02:12:56;101533.97;;;21.48;28.95
20368;BME280;10343;52.402;9.796;2023-06-04T02:15:25;101542.38;;;21.76;28.74
20368;BME280;10343;52.402;9.796;2023-06-04T02:17:58;101538.28;;;21.35;29.04
20368;BME280;10343;52.402;9.796;2023-06-04T02:20:26;101532.72;;;21.87;28.39
20368;BME280;10343;52.402;9.796;2023-06-04T02:22:55;101539.59;;;21.61;28.75
20368;BME280;10343;52.402;9.796;2023-06-04T02:25:25;101535.56;;;21.84;28.29
20368;BME280;10343;52.402;9.796;2023-06-04T02:27:54;101535.91;;;21.62;28.71
20368;BME280;10343;52.402;9.796;2023-06-04T02:30:22;101527.78;;;22.10;28.20
20368;BME280;10343;52.402;9.796;2023-06-04T02:32:50;101529.31;;;21.68;28.75
20368;BME280;10343;52.402;9.796;2023-06-04T02:35:24;101533.31;;;21.61;28.51
20368;BME280;10343;52.402;9.796;2023-06-04T02:37:53;101536.72;;;21.64;28.61
20368;BME280;10343;52.402;9.796;2023-06-04T02:40:23;101533.16;;;21.96;28.43
20368;BME280;10343;52.402;9.796;2023-06-04T02:42:52;101536.69;;;21.80;28.38
20368;BME280;10343;52.402;9.796;2023-06-04T02:45:21;101536.31;;;22.02;28.27
20368;BME280;10343;52.402;9.796;2023-06-04T02:47:50;101538.97;;;22.04;28.12
20368;BME280;10343;52.402;9.796;2023-06-04T02:50:19;101541.06;;;22.45;27.58
20368;BME280;10343;52.402;9.796;2023-06-04T02:52:50;101543.22;;;22.08;27.99
20368;BME280;10343;52.402;9.796;2023-06-04T02:55:18;101561.00;;;21.96;28.12
20368;BME280;10343;52.402;9.796;2023-06-04T02:57:46;101552.88;;;22.59;27.69
20368;BME280;10343;52.402;9.796;2023-06-04T03:00:15;101544.00;;;22.56;27.39
20368;BME280;10343;52.402;9.796;2023-06-04T03:02:45;101553.38;;;22.51;27.87
20368;BME280;10343;52.402;9.796;2023-06-04T03:05:16;101554.19;;;22.82;27.37
20368;BME280;10343;52.402;9.796;2023-06-04T03:07:46;101559.00;;;22.77;27.54
20368;BME280;10343;52.402;9.796;2023-06-04T03:10:17;101553.25;;;22.97;27.15
20368;BME280;10343;52.402;9.796;2023-06-04T03:12:45;101557.69;;;22.98;27.18
20368;BME280;10343;52.402;9.796;2023-06-04T03:15:14;101556.88;;;22.67;27.60
20368;BME280;10343;52.402;9.796;2023-06-04T03:17:43;101560.34;;;22.39;27.85
20368;BME280;10343;52.402;9.796;2023-06-04T03:20:13;101556.06;;;22.51;27.74
20368;BME280;10343;52.402;9.796;2023-06-04T03:22:41;101551.53;;;22.66;27.66
20368;BME280;10343;52.402;9.796;2023-06-04T03:25:10;101564.44;;;22.46;28.00
20368;BME280;10343;52.402;9.796;2023-06-04T03:27:40;101556.63;;;23.01;27.70
20368;BME280;10343;52.402;9.796;2023-06-04T03:30:09;101556.59;;;22.26;28.25
20368;BME280;10343;52.402;9.796;2023-06-04T03:32:59;101556.78;;;22.22;28.32
20368;BME280;10343;52.402;9.796;2023-06-04T03:35:28;101558.69;;;22.36;28.26
20368;BME280;10343;52.402;9.796;2023-06-04T03:37:56;101558.06;;;22.47;28.34
20368;BME280;10343;52.402;9.796;2023-06-04T03:40:25;101562.66;;;21.33;29.74
20368;BME280;10343;52.402;9.796;2023-06-04T03:42:55;101562.69;;;21.49;29.49
20368;BME280;10343;52.402;9.796;2023-06-04T03:45:27;101555.59;;;21.31;29.99
20368;BME280;10343;52.402;9.796;2023-06-04T03:47:56;101565.84;;;20.91;30.65
20368;BME280;10343;52.402;9.796;2023-06-04T03:50:26;101556.81;;;21.59;29.65
20368;BME280;10343;52.402;9.796;2023-06-04T03:52:55;101567.59;;;21.75;29.44
20368;BME280;10343;52.402;9.796;2023-06-04T03:55:24;101557.16;;;21.19;30.24
20368;BME280;10343;52.402;9.796;2023-06-04T03:57:55;101563.94;;;21.60;29.94
20368;BME280;10343;52.402;9.796;2023-06-04T04:00:23;101555.72;;;21.45;30.11
20368;BME280;10343;52.402;9.796;2023-06-04T04:02:54;101548.78;;;22.21;29.29
20368;BME280;10343;52.402;9.796;2023-06-04T04:05:27;101559.97;;;21.99;29.63
20368;BME280;10343;52.402;9.796;2023-06-04T04:07:56;101554.03;;;21.76;29.70
20368;BME280;10343;52.402;9.796;2023-06-04T04:10:28;101550.50;;;22.38;29.01
20368;BME280;10343;52.402;9.796;2023-06-04T04:12:59;101547.91;;;23.82;27.28
20368;BME280;10343;52.402;9.796;2023-06-04T04:15:31;101555.28;;;24.35;26.22
20368;BME280;10343;52.402;9.796;2023-06-04T04:18:01;101558.31;;;24.03;26.61
20368;BME280;10343;52.402;9.796;2023-06-04T04:20:32;101555.28;;;24.75;25.69
20368;BME280;10343;52.402;9.796;2023-06-04T04:23:06;101551.19;;;25.34;25.05
20368;BME280;10343;52.402;9.796;2023-06-04T04:25:36;101546.44;;;25.37;25.02
20368;BME280;10343;52.402;9.796;2023-06-04T04:28:07;101548.22;;;25.63;24.63
20368;BME280;10343;52.402;9.796;2023-06-04T04:30:38;101553.78;;;24.97;25.78
20368;BME280;10343;52.402;9.796;2023-06-04T04:33:08;101555.88;;;23.71;26.92
20368;BME280;10343;52.402;9.796;2023-06-04T04:35:42;101553.19;;;23.28;28.02
20368;BME280;10343;52.402;9.796;2023-06-04T04:38:14;101553.75;;;23.04;28.44
20368;BME280;10343;52.402;9.796;2023-06-04T04:40:50;101561.50;;;22.35;29.26
20368;BME280;10343;52.402;9.796;2023-06-04T04:43:30;101563.34;;;22.02;29.82
20368;BME280;10343;52.402;9.796;2023-06-04T04:46:06;101561.75;;;21.50;30.47
20368;BME280;10343;52.402;9.796;2023-06-04T04:48:35;101566.28;;;20.99;31.46
20368;BME280;10343;52.402;9.796;2023-06-04T04:51:05;101559.97;;;21.00;31.46
20368;BME280;10343;52.402;9.796;2023-06-04T04:53:34;101565.19;;;21.03;31.15
20368;BME280;10343;52.402;9.796;2023-06-04T04:56:03;101557.72;;;21.75;30.50
20368;BME280;10343;52.402;9.796;2023-06-04T04:58:38;101565.69;;;21.93;30.13
20368;BME280;10343;52.402;9.796;2023-06-04T05:01:07;101562.28;;;22.21;29.46
20368;BME280;10343;52.402;9.796;2023-06-04T05:03:37;101570.06;;;21.79;30.06
20368;BME280;10343;52.402;9.796;2023-06-04T05:06:06;101564.75;;;21.62;30.29
20368;BME280;10343;52.402;9.796;2023-06-04T05:08:38;101571.94;;;21.28;30.71
20368;BME280;10343;52.402;9.796;2023-06-04T05:11:10;101570.41;;;21.73;30.29
20368;BME280;10343;52.402;9.796;2023-06-04T05:13:41;101571.88;;;21.63;30.47
20368;BME280;10343;52.402;9.796;2023-06-04T05:16:11;101574.41;;;21.82;30.11
20368;BME280;10343;52.402;9.796;2023-06-04T05:18:41;101572.31;;;22.03;29.85
20368;BME280;10343;52.402;9.796;2023-06-04T05:21:17;101575.03;;;22.49;29.05
20368;BME280;10343;52.402;9.796;2023-06-04T05:23:52;101569.09;;;22.59;28.50
20368;BME280;10343;52.402;9.796;2023-06-04T05:26:23;101580.66;;;22.14;29.35
20368;BME280;10343;52.402;9.796;2023-06-04T05:28:56;101582.53;;;21.48;29.92
20368;BME280;10343;52.402;9.796;2023-06-04T05:31:28;101579.75;;;22.30;29.06
20368;BME280;10343;52.402;9.796;2023-06-04T05:34:02;101577.91;;;21.84;30.05
20368;BME280;10343;52.402;9.796;2023-06-04T05:36:34;101586.19;;;23.04;28.25
20368;BME280;10343;52.402;9.796;2023-06-04T05:39:05;101581.81;;;23.17;27.48
20368;BME280;10343;52.402;9.796;2023-06-04T05:41:42;101581.22;;;23.27;27.38
20368;BME280;10343;52.402;9.796;2023-06-04T05:44:15;101582.69;;;22.87;28.41
20368;BME280;10343;52.402;9.796;2023-06-04T05:46:43;101584.53;;;22.87;28.47
20368;BME280;10343;52.402;9.796;2023-06-04T05:49:12;101579.78;;;22.76;28.34
20368;BME280;10343;52.402;9.796;2023-06-04T05:51:41;101582.53;;;23.77;27.13
20368;BME280;10343;52.402;9.796;2023-06-04T05:54:09;101588.97;;;23.18;28.06
20368;BME280;10343;52.402;9.796;2023-06-04T05:56:41;101585.63;;;24.00;26.78
20368;BME280;10343;52.402;9.796;2023-06-04T05:59:09;101577.81;;;24.63;26.03
20368;BME280;10343;52.402;9.796;2023-06-04T06:01:39;101586.59;;;23.99;26.92
20368;BME280;10343;52.402;9.796;2023-06-04T06:04:07;101591.34;;;24.22;26.54
20368;BME280;10343;52.402;9.796;2023-06-04T06:06:38;101591.44;;;23.36;27.10
20368;BME280;10343;52.402;9.796;2023-06-04T06:09:08;101598.28;;;23.70;26.78
20368;BME280;10343;52.402;9.796;2023-06-04T06:11:37;101592.88;;;23.85;26.90
20368;BME280;10343;52.402;9.796;2023-06-04T06:14:05;101600.94;;;23.29;27.63
20368;BME280;10343;52.402;9.796;2023-06-04T06:16:33;101585.69;;;24.53;26.01
20368;BME280;10343;52.402;9.796;2023-06-04T06:19:04;101598.84;;;24.32;25.66
20368;BME280;10343;52.402;9.796;2023-06-04T06:21:32;101598.78;;;23.91;26.53
20368;BME280;10343;52.402;9.796;2023-06-04T06:24:00;101596.63;;;23.97;26.06
20368;BME280;10343;52.402;9.796;2023-06-04T06:26:30;101593.13;;;24.36;25.67
20368;BME280;10343;52.402;9.796;2023-06-04T06:29:00;101599.59;;;25.53;24.52
20368;BME280;10343;52.402;9.796;2023-06-04T06:31:30;101593.69;;;24.82;25.18
20368;BME280;10343;52.402;9.796;2023-06-04T06:33:58;101598.28;;;25.58;24.39
20368;BME280;10343;52.402;9.796;2023-06-04T06:36:28;101601.78;;;25.35;24.74
20368;BME280;10343;52.402;9.796;2023-06-04T06:38:57;101601.09;;;24.92;24.99
20368;BME280;10343;52.402;9.796;2023-06-04T06:41:26;101598.41;;;25.44;24.29
20368;BME280;10343;52.402;9.796;2023-06-04T06:43:57;101593.97;;;25.43;24.34
20368;BME280;10343;52.402;9.796;2023-06-04T06:46:25;101597.63;;;25.68;24.32
20368;BME280;10343;52.402;9.796;2023-06-04T06:48:53;101601.56;;;25.25;24.76
20368;BME280;10343;52.402;9.796;2023-06-04T06:51:22;101594.72;;;26.08;23.36
20368;BME280;10343;52.402;9.796;2023-06-04T06:53:51;101601.47;;;26.26;23.49
20368;BME280;10343;52.402;9.796;2023-06-04T06:56:19;101601.13;;;27.02;22.83
20368;BME280;10343;52.402;9.796;2023-06-04T06:58:49;101608.72;;;26.02;23.47
20368;BME280;10343;52.402;9.796;2023-06-04T07:01:18;101610.91;;;25.34;24.83
20368;BME280;10343;52.402;9.796;2023-06-04T07:03:46;101611.41;;;25.65;24.50
20368;BME280;10343;52.402;9.796;2023-06-04T07:06:15;101612.09;;;26.54;23.35
20368;BME280;10343;52.402;9.796;2023-06-04T07:08:43;101620.72;;;25.86;23.89
20368;BME280;10343;52.402;9.796;2023-06-04T07:11:16;101612.16;;;26.17;23.58
20368;BME280;10343;52.402;9.796;2023-06-04T07:13:44;101611.59;;;26.24;23.98
20368;BME280;10343;52.402;9.796;2023-06-04T07:16:12;101605.34;;;27.06;23.06
20368;BME280;10343;52.402;9.796;2023-06-04T07:18:41;101602.06;;;26.54;23.58
20368;BME280;10343;52.402;9.796;2023-06-04T07:21:09;101607.78;;;26.87;22.95
20368;BME280;10343;52.402;9.796;2023-06-04T07:23:37;101599.75;;;26.61;23.59
20368;BME280;10343;52.402;9.796;2023-06-04T07:26:05;101610.16;;;26.32;23.99
20368;BME280;10343;52.402;9.796;2023-06-04T07:28:35;101608.59;;;26.16;23.91
20368;BME280;10343;52.402;9.796;2023-06-04T07:31:03;101604.00;;;27.01;23.48
20368;BME280;10343;52.402;9.796;2023-06-04T07:33:32;101603.53;;;27.29;22.88
20368;BME280;10343;52.402;9.796;2023-06-04T07:36:00;101600.53;;;26.99;23.26
20368;BME280;10343;52.402;9.796;2023-06-04T07:38:29;101601.63;;;26.60;23.15
20368;BME280;10343;52.402;9.796;2023-06-04T07:40:56;101602.09;;;26.78;23.23
20368;BME280;10343;52.402;9.796;2023-06-04T07:43:25;101601.88;;;26.57;23.44
20368;BME280;10343;52.402;9.796;2023-06-04T07:45:54;101606.97;;;26.38;23.05
20368;BME280;10343;52.402;9.796;2023-06-04T07:48:23;101612.19;;;26.41;23.58
20368;BME280;10343;52.402;9.796;2023-06-04T07:50:57;101608.06;;;26.95;23.01
20368;BME280;10343;52.402;9.796;2023-06-04T07:53:25;101608.81;;;26.13;23.86
20368;BME280;10343;52.402;9.796;2023-06-04T07:55:54;101610.31;;;27.12;22.62
20368;BME280;10343;52.402;9.796;2023-06-04T07:58:23;101610.16;;;28.60;21.73
20368;BME280;10343;52.402;9.796;2023-06-04T08:00:54;101604.53;;;29.15;20.70
20368;BME280;10343;52.402;9.796;2023-06-04T08:03:23;101605.50;;;27.95;21.56
20368;BME280;10343;52.402;9.796;2023-06-04T08:05:51;101608.97;;;27.97;21.24
20368;BME280;10343;52.402;9.796;2023-06-04T08:08:19;101609.63;;;28.98;20.71
20368;BME280;10343;52.402;9.796;2023-06-04T08:10:47;101620.00;;;27.28;21.48
20368;BME280;10343;52.402;9.796;2023-06-04T08:13:15;101616.81;;;27.68;21.82
20368;BME280;10343;52.402;9.796;2023-06-04T08:15:44;101618.38;;;27.93;21.12
20368;BME280;10343;52.402;9.796;2023-06-04T08:18:13;101598.19;;;29.14;19.90
20368;BME280;10343;52.402;9.796;2023-06-04T08:20:42;101613.19;;;28.13;19.99
20368;BME280;10343;52.402;9.796;2023-06-04T08:23:10;101609.97;;;28.08;20.28
20368;BME280;10343;52.402;9.796;2023-06-04T08:25:39;101606.50;;;27.94;21.27
20368;BME280;10343;52.402;9.796;2023-06-04T08:28:08;101606.94;;;26.86;21.43
20368;BME280;10343;52.402;9.796;2023-06-04T08:30:36;101611.75;;;28.74;20.01
20368;BME280;10343;52.402;9.796;2023-06-04T08:33:04;101606.50;;;29.65;18.78
20368;BME280;10343;52.402;9.796;2023-06-04T08:35:36;101605.94;;;28.67;19.87
20368;BME280;10343;52.402;9.796;2023-06-04T08:38:04;101613.63;;;28.29;20.01
20368;BME280;10343;52.402;9.796;2023-06-04T08:40:38;101619.41;;;27.58;20.02
20368;BME280;10343;52.402;9.796;2023-06-04T08:43:09;101614.41;;;28.20;20.04
20368;BME280;10343;52.402;9.796;2023-06-04T08:45:41;101612.41;;;29.29;18.59
20368;BME280;10343;52.402;9.796;2023-06-04T08:48:12;101620.22;;;28.27;19.62
20368;BME280;10343;52.402;9.796;2023-06-04T08:50:45;101601.75;;;30.08;18.23
20368;BME280;10343;52.402;9.796;2023-06-04T08:53:15;101614.91;;;29.83;18.19
20368;BME280;10343;52.402;9.796;2023-06-04T08:55:44;101609.09;;;29.97;17.41
20368;BME280;10343;52.402;9.796;2023-06-04T08:58:13;101619.06;;;30.18;17.18
20368;BME280;10343;52.402;9.796;2023-06-04T09:00:44;101612.72;;;30.27;16.94
20368;BME280;10343;52.402;9.796;2023-06-04T09:03:14;101626.47;;;27.72;18.27
20368;BME280;10343;52.402;9.796;2023-06-04T09:05:47;101626.09;;;27.88;18.51
20368;BME280;10343;52.402;9.796;2023-06-04T09:08:17;101619.22;;;29.45;17.77
20368;BME280;10343;52.402;9.796;2023-06-04T09:10:46;101624.53;;;28.29;19.22
20368;BME280;10343;52.402;9.796;2023-06-04T09:13:17;101616.81;;;29.52;17.70
20368;BME280;10343;52.402;9.796;2023-06-04T09:15:47;101615.66;;;29.54;17.81
20368;BME280;10343;52.402;9.796;2023-06-04T09:18:26;101614.94;;;28.79;17.93
20368;BME280;10343;52.402;9.796;2023-06-04T09:21:02;101606.13;;;29.39;16.96
20368;BME280;10343;52.402;9.796;2023-06-04T09:23:34;101618.28;;;28.39;18.53
20368;BME280;10343;52.402;9.796;2023-06-04T09:26:06;101615.16;;;28.87;18.07
20368;BME280;10343;52.402;9.796;2023-06-04T09:28:35;101615.09;;;29.91;17.71
20368;BME280;10343;52.402;9.796;2023-06-04T09:31:04;101609.75;;;29.49;17.73
20368;BME280;10343;52.402;9.796;2023-06-04T09:33:42;101611.47;;;29.19;17.91
20368;BME280;10343;52.402;9.796;2023-06-04T09:36:12;101617.19;;;29.78;18.11
20368;BME280;10343;52.402;9.796;2023-06-04T09:38:40;101625.16;;;28.66;18.75
20368;BME280;10343;52.402;9.796;2023-06-04T09:41:13;101621.03;;;28.39;18.98
20368;BME280;10343;52.402;9.796;2023-06-04T09:43:41;101619.44;;;28.90;18.61
20368;BME280;10343;52.402;9.796;2023-06-04T09:46:11;101619.66;;;29.19;17.80
20368;BME280;10343;52.402;9.796;2023-06-04T09:48:41;101622.41;;;29.50;17.77
20368;BME280;10343;52.402;9.796;2023-06-04T09:51:12;101617.00;;;30.01;17.34
20368;BME280;10343;52.402;9.796;2023-06-04T09:53:42;101609.75;;;30.50;16.70
20368;BME280;10343;52.402;9.796;2023-06-04T09:56:10;101611.03;;;30.36;17.05
20368;BME280;10343;52.402;9.796;2023-06-04T09:58:41;101599.66;;;29.40;17.72
20368;BME280;10343;52.402;9.796;2023-06-04T10:01:10;101592.84;;;30.06;17.74
20368;BME280;10343;52.402;9.796;2023-06-04T10:03:40;101605.50;;;30.07;17.38
20368;BME280;10343;52.402;9.796;2023-06-04T10:06:15;101604.09;;;29.72;17.62
20368;BME280;10343;52.402;9.796;2023-06-04T10:08:45;101600.47;;;30.02;17.27
20368;BME280;10343;52.402;9.796;2023-06-04T10:11:17;101613.50;;;27.65;18.80
20368;BME280;10343;52.402;9.796;2023-06-04T10:13:53;101602.94;;;29.34;17.72
20368;BME280;10343;52.402;9.796;2023-06-04T10:16:24;101597.56;;;29.01;17.84
20368;BME280;10343;52.402;9.796;2023-06-04T10:19:00;101596.31;;;30.27;16.89
20368;BME280;10343;52.402;9.796;2023-06-04T10:21:32;101600.09;;;29.45;17.16
20368;BME280;10343;52.402;9.796;2023-06-04T10:24:02;101594.78;;;30.44;16.53
20368;BME280;10343;52.402;9.796;2023-06-04T10:26:33;101591.97;;;29.95;16.58
20368;BME280;10343;52.402;9.796;2023-06-04T10:29:02;101597.72;;;30.02;16.75
20368;BME280;10343;52.402;9.796;2023-06-04T10:31:31;101592.97;;;31.59;15.78
20368;BME280;10343;52.402;9.796;2023-06-04T10:34:00;101592.97;;;31.59;15.66
20368;BME280;10343;52.402;9.796;2023-06-04T10:36:31;101587.88;;;30.60;15.70
20368;BME280;10343;52.402;9.796;2023-06-04T10:38:59;101589.28;;;31.31;15.32
20368;BME280;10343;52.402;9.796;2023-06-04T10:41:27;101593.41;;;29.99;15.88
20368;BME280;10343;52.402;9.796;2023-06-04T10:44:01;101601.94;;;28.92;16.42
20368;BME280;10343;52.402;9.796;2023-06-04T10:46:37;101596.03;;;28.87;17.04
20368;BME280;10343;52.402;9.796;2023-06-04T10:49:08;101609.75;;;28.00;17.10
20368;BME280;10343;52.402;9.796;2023-06-04T10:51:38;101604.13;;;28.12;17.35
20368;BME280;10343;52.402;9.796;2023-06-04T10:54:07;101606.25;;;27.86;17.88
20368;BME280;10343;52.402;9.796;2023-06-04T10:56:35;101595.38;;;28.74;17.32
20368;BME280;10343;52.402;9.796;2023-06-04T10:59:14;101599.47;;;29.31;17.14
20368;BME280;10343;52.402;9.796;2023-06-04T11:01:43;101602.34;;;30.02;16.18
20368;BME280;10343;52.402;9.796;2023-06-04T11:04:21;101599.00;;;29.98;16.15
20368;BME280;10343;52.402;9.796;2023-06-04T11:07:01;101589.00;;;30.57;15.95
20368;BME280;10343;52.402;9.796;2023-06-04T11:09:36;101583.53;;;30.47;15.94
20368;BME280;10343;52.402;9.796;2023-06-04T11:12:05;101582.16;;;31.00;15.31
20368;BME280;10343;52.402;9.796;2023-06-04T11:14:34;101592.81;;;31.23;15.64
20368;BME280;10343;52.402;9.796;2023-06-04T11:17:09;101588.81;;;30.88;15.82
20368;BME280;10343;52.402;9.796;2023-06-04T11:19:38;101588.25;;;30.26;16.13
20368;BME280;10343;52.402;9.796;2023-06-04T11:22:12;101582.91;;;29.64;16.24
20368;BME280;10343;52.402;9.796;2023-06-04T11:24:41;101586.84;;;28.88;16.53
20368;BME280;10343;52.402;9.796;2023-06-04T11:27:10;101584.28;;;28.54;17.10
20368;BME280;10343;52.402;9.796;2023-06-04T11:29:53;101577.28;;;29.87;16.10
20368;BME280;10343;52.402;9.796;2023-06-04T11:32:22;101576.47;;;30.64;15.50
20368;BME280;10343;52.402;9.796;2023-06-04T11:34:51;101581.22;;;31.29;14.87
20368;BME280;10343;52.402;9.796;2023-06-04T11:37:20;101568.88;;;32.27;14.26
20368;BME280;10343;52.402;9.796;2023-06-04T11:39:49;101565.88;;;31.09;15.02
20368;BME280;10343;52.402;9.796;2023-06-04T11:42:17;101567.44;;;30.44;15.26
20368;BME280;10343;52.402;9.796;2023-06-04T11:44:45;101572.34;;;29.40;16.40
20368;BME280;10343;52.402;9.796;2023-06-04T11:47:15;101559.66;;;29.79;15.96
20368;BME280;10343;52.402;9.796;2023-06-04T11:49:45;101553.47;;;31.80;14.44
20368;BME280;10343;52.402;9.796;2023-06-04T11:52:13;101561.50;;;31.63;14.30
20368;BME280;10343;52.402;9.796;2023-06-04T11:54:43;101554.59;;;32.77;13.82
20368;BME280;10343;52.402;9.796;2023-06-04T11:57:12;101568.09;;;30.17;14.80
20368;BME280;10343;52.402;9.796;2023-06-04T11:59:40;101569.09;;;30.06;15.36
20368;BME280;10343;52.402;9.796;2023-06-04T12:02:09;101550.78;;;29.87;15.53
20368;BME280;10343;52.402;9.796;2023-06-04T12:04:37;101557.41;;;30.82;14.77
20368;BME280;10343;52.402;9.796;2023-06-04T12:07:05;101569.84;;;30.28;15.20
20368;BME280;10343;52.402;9.796;2023-06-04T12:09:36;101573.97;;;29.52;15.87
20368;BME280;10343;52.402;9.796;2023-06-04T12:12:07;101555.56;;;31.86;14.22
20368;BME280;10343;52.402;9.796;2023-06-04T12:14:36;101553.44;;;30.57;14.73
20368;BME280;10343;52.402;9.796;2023-06-04T12:17:06;101550.41;;;30.41;14.40
20368;BME280;10343;52.402;9.796;2023-06-04T12:19:46;101553.69;;;30.35;13.88
20368;BME280;10343;52.402;9.796;2023-06-04T12:22:14;101555.97;;;30.88;13.59
20368;BME280;10343;52.402;9.796;2023-06-04T12:24:48;101550.91;;;30.93;13.59
20368;BME280;10343;52.402;9.796;2023-06-04T12:27:22;101556.00;;;32.27;12.61
20368;BME280;10343;52.402;9.796;2023-06-04T12:29:57;101546.09;;;33.23;12.78
20368;BME280;10343;52.402;9.796;2023-06-04T12:32:26;101557.03;;;32.08;13.22
20368;BME280;10343;52.402;9.796;2023-06-04T12:34:55;101548.97;;;31.23;13.75
20368;BME280;10343;52.402;9.796;2023-06-04T12:37:24;101554.78;;;31.10;13.86
20368;BME280;10343;52.402;9.796;2023-06-04T12:39:54;101552.41;;;32.45;13.06
20368;BME280;10343;52.402;9.796;2023-06-04T12:42:24;101546.81;;;32.73;13.02
20368;BME280;10343;52.402;9.796;2023-06-04T12:44:55;101546.34;;;32.41;13.24
20368;BME280;10343;52.402;9.796;2023-06-04T12:47:23;101542.78;;;31.59;13.46
20368;BME280;10343;52.402;9.796;2023-06-04T12:49:51;101545.06;;;31.63;13.68
20368;BME280;10343;52.402;9.796;2023-06-04T12:52:19;101541.91;;;32.04;13.61
20368;BME280;10343;52.402;9.796;2023-06-04T12:54:48;101539.97;;;32.77;13.14
20368;BME280;10343;52.402;9.796;2023-06-04T12:57:16;101538.59;;;33.33;12.63
20368;BME280;10343;52.402;9.796;2023-06-04T12:59:46;101538.00;;;33.56;12.52
20368;BME280;10343;52.402;9.796;2023-06-04T13:02:14;101537.56;;;32.74;13.16
20368;BME280;10343;52.402;9.796;2023-06-04T13:04:46;101532.44;;;32.79;13.18
20368;BME280;10343;52.402;9.796;2023-06-04T13:07:19;101528.03;;;34.56;12.34